Time;durP1;ratioP1;P1;durP2;ratioP2;P2;SDS_P1;SDS_P2;PMS_P1;PMS_P2;Temp;Humidity;BMP_temperature;BMP_pressure;BME280_temperature;BME280_humidity;BME280_pressure;Samples;Min_cycle;Max_cycle;Signal;HPM_P1;HPM_P2
2022/07/13 00:02:21;;;;;;;0.50;0.50;;;17.40;99.90;;;;;;5033572;28;20210;-77
2022/07/13 00:05:09;;;;;;;0.40;0.40;;;17.40;99.90;;;;;;5032838;28;20214;-76
2022/07/13 00:07:57;;;;;;;0.40;0.40;;;17.40;99.90;;;;;;5033502;28;20201;-77
2022/07/13 00:10:46;;;;;;;0.40;0.40;;;17.40;99.90;;;;;;5032350;28;20202;-76
2022/07/13 00:13:34;;;;;;;0.40;0.40;;;17.30;99.90;;;;;;5032980;28;20218;-76
2022/07/13 00:16:22;;;;;;;0.40;0.40;;;17.30;99.90;;;;;;5032396;28;20547;-78
2022/07/13 00:19:12;;;;;;;0.50;0.50;;;17.40;99.90;;;;;;5032710;28;20268;-75
2022/07/13 00:22:00;;;;;;;0.40;0.40;;;17.40;99.90;;;;;;5033337;28;20577;-80
2022/07/13 00:24:48;;;;;;;0.50;0.50;;;17.40;99.90;;;;;;5035821;28;20214;-78
2022/07/13 00:27:36;;;;;;;0.50;0.50;;;17.50;99.90;;;;;;5035866;28;20636;-79
2022/07/13 00:30:24;;;;;;;0.40;0.40;;;17.60;99.90;;;;;;5036091;28;20198;-76
2022/07/13 00:33:12;;;;;;;0.50;0.50;;;17.70;99.90;;;;;;5036175;28;20209;-76
2022/07/13 00:36:02;;;;;;;0.40;0.40;;;17.70;99.90;;;;;;5035936;28;20686;-79
2022/07/13 00:38:50;;;;;;;0.40;0.40;;;17.70;99.90;;;;;;5036030;28;20198;-76
2022/07/13 00:41:44;;;;;;;0.40;0.40;;;17.70;99.90;;;;;;5035651;28;20198;-78
2022/07/13 00:44:33;;;;;;;0.40;0.40;;;17.70;99.90;;;;;;5035387;28;20221;-78
2022/07/13 00:47:21;;;;;;;0.40;0.40;;;17.70;99.90;;;;;;5035211;28;20229;-74
2022/07/13 00:50:10;;;;;;;0.40;0.40;;;17.80;99.90;;;;;;5035212;28;20212;-81
2022/07/13 00:53:00;;;;;;;0.40;0.40;;;17.80;99.90;;;;;;5035770;28;20206;-78
2022/07/13 00:55:48;;;;;;;0.50;0.50;;;17.80;99.90;;;;;;5036188;28;20603;-77
2022/07/13 00:58:36;;;;;;;0.40;0.40;;;17.80;99.90;;;;;;5034819;28;20631;-77
2022/07/13 01:01:24;;;;;;;0.40;0.40;;;17.80;99.90;;;;;;5034688;28;20245;-78
2022/07/13 01:04:12;;;;;;;0.40;0.40;;;17.90;99.90;;;;;;5034796;28;20222;-78
2022/07/13 01:07:01;;;;;;;0.40;0.40;;;17.90;99.90;;;;;;5034858;28;20229;-80
2022/07/13 01:09:51;;;;;;;0.40;0.40;;;18.00;99.90;;;;;;5033150;28;20213;-79
2022/07/13 01:12:40;;;;;;;0.50;0.50;;;18.00;99.90;;;;;;5034673;28;20198;-78
2022/07/13 01:15:28;;;;;;;0.40;0.40;;;18.00;99.90;;;;;;5034390;28;20407;-77
2022/07/13 01:18:17;;;;;;;0.43;0.43;;;17.90;99.90;;;;;;5035074;28;20590;-76
2022/07/13 01:21:06;;;;;;;0.75;0.75;;;17.90;99.90;;;;;;5034891;28;20209;-77
2022/07/13 01:23:56;;;;;;;0.40;0.40;;;17.90;99.90;;;;;;5034687;28;20717;-79
2022/07/13 01:26:44;;;;;;;0.40;0.40;;;17.90;99.90;;;;;;5034468;28;20214;-74
2022/07/13 01:29:32;;;;;;;0.40;0.40;;;17.80;99.90;;;;;;5036023;28;20304;-73
2022/07/13 01:32:20;;;;;;;0.40;0.40;;;17.90;99.90;;;;;;5045257;28;20256;-74
2022/07/13 01:35:08;;;;;;;0.40;0.40;;;17.90;99.90;;;;;;5034645;28;20714;-79
2022/07/13 01:37:57;;;;;;;0.40;0.40;;;17.90;99.90;;;;;;5034390;28;20671;-78
2022/07/13 01:40:47;;;;;;;0.40;0.40;;;17.80;99.90;;;;;;5034325;28;20202;-80
2022/07/13 01:43:35;;;;;;;0.45;0.45;;;17.80;99.90;;;;;;5030704;28;20355;-72
2022/07/13 01:46:24;;;;;;;0.40;0.40;;;17.80;99.90;;;;;;5013377;28;20202;-80
2022/07/13 01:49:12;;;;;;;0.40;0.40;;;17.80;99.90;;;;;;5014454;28;20284;-82
2022/07/13 01:52:00;;;;;;;0.50;0.50;;;17.80;99.90;;;;;;5014142;28;20211;-81
2022/07/13 01:54:48;;;;;;;0.43;0.43;;;17.70;99.90;;;;;;5014678;28;20233;-81
2022/07/13 01:57:38;;;;;;;0.40;0.40;;;17.80;99.90;;;;;;5013532;28;20210;-82
2022/07/13 02:00:26;;;;;;;0.50;0.50;;;17.80;99.90;;;;;;5014189;28;20765;-78
2022/07/13 02:03:15;;;;;;;0.40;0.40;;;17.80;99.90;;;;;;5014322;28;20571;-83
2022/07/13 02:06:05;;;;;;;0.50;0.50;;;17.80;99.90;;;;;;5012841;28;20678;-75
2022/07/13 02:08:53;;;;;;;0.40;0.40;;;17.80;99.90;;;;;;5014050;28;20206;-79
2022/07/13 02:11:41;;;;;;;0.50;0.50;;;17.80;99.90;;;;;;5012888;28;20198;-81
2022/07/13 02:14:30;;;;;;;0.40;0.40;;;17.80;99.90;;;;;;5013998;28;20225;-78
2022/07/13 02:17:18;;;;;;;0.40;0.40;;;17.80;99.90;;;;;;5026747;28;20202;-82
2022/07/13 02:20:07;;;;;;;0.40;0.40;;;17.80;99.90;;;;;;5032974;28;20478;-78
2022/07/13 02:22:55;;;;;;;0.40;0.40;;;17.80;99.90;;;;;;5032899;28;20205;-82
2022/07/13 02:25:44;;;;;;;0.40;0.40;;;17.70;99.90;;;;;;5033657;28;20712;-77
2022/07/13 02:28:32;;;;;;;0.40;0.40;;;17.80;99.90;;;;;;5032746;28;20702;-78
2022/07/13 02:31:21;;;;;;;0.40;0.40;;;17.80;99.90;;;;;;5033058;28;20206;-80
2022/07/13 02:34:10;;;;;;;0.40;0.40;;;17.80;99.90;;;;;;5033515;28;20225;-79
2022/07/13 02:36:58;;;;;;;0.40;0.40;;;17.80;99.90;;;;;;5033221;28;20197;-79
2022/07/13 02:39:46;;;;;;;0.40;0.40;;;17.80;99.90;;;;;;5032716;28;20202;-81
2022/07/13 02:42:34;;;;;;;0.50;0.50;;;17.80;99.90;;;;;;5032980;28;20206;-76
2022/07/13 02:45:22;;;;;;;0.40;0.40;;;17.80;99.90;;;;;;5032230;28;20222;-77
2022/07/13 02:48:12;;;;;;;0.40;0.40;;;17.90;99.90;;;;;;5032545;28;20217;-76
2022/07/13 02:51:00;;;;;;;0.40;0.40;;;17.90;99.90;;;;;;5032630;28;20204;-80
2022/07/13 02:53:48;;;;;;;0.50;0.50;;;17.90;99.90;;;;;;5032832;28;20225;-82
2022/07/13 02:56:36;;;;;;;0.50;0.50;;;18.00;99.90;;;;;;5032287;28;20671;-77
2022/07/13 02:59:24;;;;;;;0.40;0.40;;;17.90;99.90;;;;;;5032210;28;20256;-80
2022/07/13 03:02:12;;;;;;;0.40;0.40;;;17.90;99.90;;;;;;5032638;28;20213;-81
2022/07/13 03:05:02;;;;;;;0.40;0.40;;;17.90;99.90;;;;;;5032531;28;20222;-81
2022/07/13 03:07:50;;;;;;;0.50;0.50;;;17.90;99.90;;;;;;5031866;28;20225;-77
2022/07/13 03:10:38;;;;;;;0.40;0.40;;;17.90;99.90;;;;;;5031884;28;20232;-80
2022/07/13 03:13:27;;;;;;;0.50;0.50;;;17.90;99.90;;;;;;5031954;28;20202;-77
2022/07/13 03:16:15;;;;;;;0.40;0.40;;;17.90;99.90;;;;;;4993370;28;20200;-78
2022/07/13 03:19:03;;;;;;;0.40;0.40;;;17.80;99.90;;;;;;4992670;28;20265;-77
2022/07/13 03:21:52;;;;;;;0.40;0.40;;;17.90;99.90;;;;;;4992819;28;20770;-78
2022/07/13 03:24:40;;;;;;;0.40;0.40;;;17.90;99.90;;;;;;4993108;28;20223;-76
2022/07/13 03:27:28;;;;;;;0.43;0.43;;;17.90;99.90;;;;;;4992479;28;20626;-82
2022/07/13 03:30:16;;;;;;;0.50;0.50;;;17.80;99.90;;;;;;4993126;28;20207;-78
2022/07/13 03:33:04;;;;;;;0.50;0.50;;;17.90;99.90;;;;;;4993683;28;20206;-80
2022/07/13 03:35:53;;;;;;;0.40;0.40;;;17.90;99.90;;;;;;5004612;28;20207;-78
2022/07/13 03:38:42;;;;;;;0.45;0.45;;;17.90;99.90;;;;;;4993935;28;20262;-80
2022/07/13 03:41:30;;;;;;;0.40;0.40;;;18.00;99.90;;;;;;4993907;28;20234;-77
2022/07/13 03:44:18;;;;;;;1.25;1.15;;;18.00;99.90;;;;;;4993300;28;20223;-74
2022/07/13 03:47:06;;;;;;;0.40;0.40;;;18.00;99.90;;;;;;4993805;28;20234;-80
2022/07/13 03:49:54;;;;;;;0.47;0.47;;;18.00;99.90;;;;;;4992620;28;20199;-77
2022/07/13 03:52:42;;;;;;;0.40;0.40;;;18.00;99.90;;;;;;4992964;28;20210;-80
2022/07/13 03:55:32;;;;;;;0.40;0.40;;;18.10;99.90;;;;;;4993610;28;20230;-76
2022/07/13 03:58:20;;;;;;;0.40;0.40;;;18.10;99.90;;;;;;4995674;28;20211;-76
2022/07/13 04:01:08;;;;;;;0.50;0.50;;;18.10;99.90;;;;;;4998058;28;20289;-81
2022/07/13 04:03:58;;;;;;;0.40;0.40;;;18.20;99.90;;;;;;5035707;28;20237;-78
2022/07/13 04:06:46;;;;;;;0.50;0.50;;;18.20;99.90;;;;;;5035802;28;20209;-79
2022/07/13 04:09:34;;;;;;;0.40;0.40;;;18.30;99.90;;;;;;5035108;28;20249;-78
2022/07/13 04:12:24;;;;;;;0.40;0.40;;;18.30;99.90;;;;;;5036324;28;20736;-78
2022/07/13 04:15:12;;;;;;;0.40;0.40;;;18.30;99.90;;;;;;5036171;28;20241;-73
2022/07/13 04:18:00;;;;;;;0.40;0.40;;;18.40;99.90;;;;;;5034040;28;20202;-80
2022/07/13 04:20:49;;;;;;;0.57;0.57;;;18.40;99.90;;;;;;5035289;28;20198;-80
2022/07/13 04:23:37;;;;;;;0.40;0.40;;;18.40;99.90;;;;;;5035719;28;20225;-81
2022/07/13 04:26:25;;;;;;;0.40;0.40;;;18.40;99.90;;;;;;5035326;28;20246;-81
2022/07/13 04:29:14;;;;;;;0.50;0.50;;;18.50;99.90;;;;;;5034937;28;20213;-78
2022/07/13 04:32:02;;;;;;;0.40;0.40;;;18.50;99.90;;;;;;5035288;28;20255;-77
2022/07/13 04:34:50;;;;;;;0.50;0.50;;;18.60;99.90;;;;;;5035319;28;20303;-76
2022/07/13 04:37:38;;;;;;;0.40;0.40;;;18.70;99.90;;;;;;5035324;28;20203;-74
2022/07/13 04:40:27;;;;;;;0.40;0.40;;;18.80;99.90;;;;;;5034564;28;20679;-77
2022/07/13 04:43:15;;;;;;;0.73;0.73;;;18.80;99.90;;;;;;5034326;28;20670;-78
2022/07/13 04:46:04;;;;;;;1.42;0.85;;;18.90;99.90;;;;;;5035001;28;20244;-75
2022/07/13 04:48:52;;;;;;;0.40;0.40;;;18.90;99.90;;;;;;5034797;28;20222;-75
2022/07/13 04:51:40;;;;;;;0.40;0.40;;;19.00;99.90;;;;;;5034941;28;20206;-76
2022/07/13 04:54:28;;;;;;;0.40;0.40;;;19.00;99.90;;;;;;5035027;28;20233;-79
2022/07/13 04:57:16;;;;;;;0.40;0.40;;;19.10;99.90;;;;;;5035023;28;20198;-77
2022/07/13 05:00:06;;;;;;;0.40;0.40;;;19.10;99.90;;;;;;5034539;28;20535;-76
2022/07/13 05:02:56;;;;;;;0.40;0.40;;;19.10;99.90;;;;;;5034694;28;20225;-76
2022/07/13 05:05:44;;;;;;;0.47;0.47;;;19.10;99.90;;;;;;5035524;28;20198;-72
2022/07/13 05:08:32;;;;;;;0.40;0.40;;;19.10;99.90;;;;;;5034461;28;20226;-75
2022/07/13 05:11:21;;;;;;;0.40;0.40;;;19.20;99.90;;;;;;5035413;28;20202;-73
2022/07/13 05:14:09;;;;;;;0.40;0.40;;;19.30;99.90;;;;;;5035416;28;20222;-76
2022/07/13 05:16:57;;;;;;;0.47;0.47;;;19.40;99.90;;;;;;5035251;28;20248;-74
2022/07/13 05:19:46;;;;;;;0.40;0.40;;;19.60;99.90;;;;;;5035190;28;20194;-76
2022/07/13 05:22:34;;;;;;;0.40;0.40;;;19.70;99.90;;;;;;5035545;28;20225;-80
2022/07/13 05:25:23;;;;;;;0.40;0.40;;;19.80;99.90;;;;;;5035889;28;20222;-78
2022/07/13 05:28:11;;;;;;;0.40;0.40;;;20.00;99.90;;;;;;5035642;28;20256;-80
2022/07/13 05:30:59;;;;;;;0.40;0.40;;;20.10;99.90;;;;;;5034442;28;20251;-78
2022/07/13 05:33:47;;;;;;;0.40;0.40;;;20.10;99.90;;;;;;5035740;28;20624;-75
2022/07/13 05:36:36;;;;;;;0.50;0.50;;;20.20;99.90;;;;;;5035920;28;20229;-76
2022/07/13 05:39:25;;;;;;;0.50;0.50;;;20.30;99.90;;;;;;5051744;28;20194;-73
2022/07/13 05:42:13;;;;;;;0.77;0.75;;;20.30;99.90;;;;;;5042204;28;20198;-78
2022/07/13 05:45:01;;;;;;;0.40;0.40;;;20.40;99.90;;;;;;5035571;28;20228;-78
2022/07/13 05:47:49;;;;;;;1.25;1.25;;;20.40;99.90;;;;;;5045274;28;20210;-77
2022/07/13 05:50:37;;;;;;;0.40;0.40;;;20.50;99.90;;;;;;5045926;28;20618;-77
2022/07/13 05:53:27;;;;;;;0.40;0.40;;;20.50;99.90;;;;;;5057029;28;20182;-73
2022/07/13 05:56:15;;;;;;;0.40;0.40;;;20.50;99.90;;;;;;5041552;28;20225;-73
2022/07/13 05:59:03;;;;;;;0.52;0.52;;;20.70;99.90;;;;;;5038776;28;20218;-72
2022/07/13 06:01:51;;;;;;;0.50;0.50;;;20.80;99.90;;;;;;5033784;28;20224;-71
2022/07/13 06:04:41;;;;;;;0.50;0.50;;;20.90;99.90;;;;;;5030809;28;20249;-70
2022/07/13 06:07:29;;;;;;;0.40;0.40;;;21.00;99.90;;;;;;5039144;28;20183;-73
2022/07/13 06:10:18;;;;;;;0.43;0.43;;;21.00;99.90;;;;;;5042468;28;20221;-73
2022/07/13 06:13:06;;;;;;;0.40;0.40;;;21.10;99.90;;;;;;5050901;28;20194;-73
2022/07/13 06:15:57;;;;;;;0.40;0.40;;;21.20;99.90;;;;;;5042502;28;20191;-73
2022/07/13 06:18:45;;;;;;;0.40;0.40;;;21.20;99.90;;;;;;5036564;28;20191;-73
2022/07/13 06:21:33;;;;;;;0.40;0.40;;;21.40;99.90;;;;;;5034990;28;20217;-73
2022/07/13 06:24:21;;;;;;;0.40;0.40;;;21.50;99.90;;;;;;5032625;28;20253;-75
2022/07/13 06:27:11;;;;;;;0.50;0.50;;;21.80;99.90;;;;;;5021888;28;20221;-80
2022/07/13 06:29:59;;;;;;;0.40;0.40;;;22.00;99.90;;;;;;5022408;28;20226;-76
2022/07/13 06:32:47;;;;;;;0.50;0.50;;;22.20;99.90;;;;;;5020683;28;20202;-75
2022/07/13 06:35:35;;;;;;;0.45;0.45;;;22.30;99.90;;;;;;5020670;28;20233;-75
2022/07/13 06:38:23;;;;;;;0.70;0.70;;;22.30;99.90;;;;;;5020528;28;20207;-71
2022/07/13 06:41:11;;;;;;;0.40;0.40;;;22.40;99.90;;;;;;5014129;28;20206;-70
2022/07/13 06:44:01;;;;;;;0.40;0.40;;;22.40;99.90;;;;;;5013714;28;20258;-71
2022/07/13 06:46:49;;;;;;;0.47;0.47;;;22.40;99.90;;;;;;5014528;28;20210;-74
2022/07/13 06:49:37;;;;;;;0.40;0.40;;;22.60;99.90;;;;;;5014508;28;20218;-72
2022/07/13 06:52:26;;;;;;;0.50;0.50;;;22.70;99.90;;;;;;5013995;28;20714;-71
2022/07/13 06:55:14;;;;;;;0.40;0.40;;;22.80;99.90;;;;;;5014395;28;20223;-72
2022/07/13 06:58:03;;;;;;;0.40;0.40;;;22.90;99.90;;;;;;5014835;28;20206;-69
2022/07/13 07:00:52;;;;;;;0.40;0.40;;;23.00;99.90;;;;;;5013127;28;20198;-70
2022/07/13 07:03:41;;;;;;;0.40;0.40;;;23.00;99.90;;;;;;5013263;28;20245;-71
2022/07/13 07:06:29;;;;;;;0.40;0.40;;;23.20;99.90;;;;;;5013427;28;20195;-71
2022/07/13 07:09:17;;;;;;;0.50;0.50;;;23.40;99.90;;;;;;5014445;28;20233;-71
2022/07/13 07:12:05;;;;;;;0.40;0.40;;;23.50;99.90;;;;;;5014132;28;20199;-70
2022/07/13 07:14:53;;;;;;;0.40;0.40;;;23.80;99.90;;;;;;5013523;28;20229;-70
2022/07/13 07:17:46;;;;;;;0.50;0.50;;;23.90;99.90;;;;;;5013573;28;20206;-71
2022/07/13 07:20:34;;;;;;;0.50;0.50;;;24.10;99.90;;;;;;5012740;28;20198;-71
2022/07/13 07:23:22;;;;;;;0.40;0.40;;;24.20;99.90;;;;;;5012760;28;20250;-71
2022/07/13 07:26:10;;;;;;;0.40;0.40;;;24.40;99.90;;;;;;5013568;28;20288;-70
2022/07/13 07:28:59;;;;;;;0.40;0.40;;;24.70;99.90;;;;;;5012926;28;20226;-71
2022/07/13 07:31:48;;;;;;;0.40;0.40;;;24.90;99.90;;;;;;5024961;28;20206;-70
2022/07/13 07:34:37;;;;;;;0.40;0.40;;;25.00;99.90;;;;;;5038091;28;20283;-70
2022/07/13 07:37:26;;;;;;;0.40;0.40;;;25.00;99.90;;;;;;5036370;28;20205;-70
2022/07/13 07:40:14;;;;;;;0.40;0.40;;;25.10;99.90;;;;;;5037790;28;20205;-70
2022/07/13 07:43:02;;;;;;;0.50;0.50;;;25.10;99.90;;;;;;5040588;28;20259;-71
2022/07/13 07:45:50;;;;;;;0.45;0.45;;;25.00;99.90;;;;;;5036820;28;20198;-71
2022/07/13 07:48:38;;;;;;;0.40;0.40;;;25.00;99.90;;;;;;5020523;28;20574;-70
2022/07/13 07:51:28;;;;;;;0.60;0.60;;;25.00;99.90;;;;;;5016621;28;20222;-70
2022/07/13 07:54:36;;;;;;;0.40;0.40;;;25.00;99.90;;;;;;5016381;28;20217;-71
2022/07/13 07:57:24;;;;;;;0.40;0.40;;;25.30;99.90;;;;;;5017449;28;20214;-71
2022/07/13 08:00:13;;;;;;;0.40;0.40;;;25.60;99.90;;;;;;5027018;28;20199;-70
2022/07/13 08:03:03;;;;;;;0.47;0.47;;;25.90;99.90;;;;;;5023242;28;20202;-72
2022/07/13 08:05:52;;;;;;;0.40;0.40;;;26.10;99.90;;;;;;5026164;28;20203;-71
2022/07/13 08:08:42;;;;;;;0.70;0.70;;;26.30;99.90;;;;;;5022845;28;20206;-71
2022/07/13 08:11:30;;;;;;;0.40;0.40;;;26.30;99.90;;;;;;5025981;28;20210;-71
2022/07/13 08:14:18;;;;;;;0.40;0.40;;;26.30;99.90;;;;;;5025267;28;20218;-71
2022/07/13 08:17:06;;;;;;;0.40;0.40;;;26.40;99.90;;;;;;5022604;28;20202;-72
2022/07/13 08:19:55;;;;;;;0.40;0.40;;;26.60;99.90;;;;;;5024415;28;20657;-70
2022/07/13 08:22:43;;;;;;;1.40;1.20;;;26.50;99.90;;;;;;5026382;28;20202;-69
2022/07/13 08:25:32;;;;;;;0.40;0.40;;;26.30;99.90;;;;;;5022844;28;20246;-70
2022/07/13 08:28:21;;;;;;;0.40;0.40;;;26.20;99.90;;;;;;5022206;28;20628;-71
2022/07/13 08:31:09;;;;;;;0.40;0.40;;;26.30;99.90;;;;;;5023091;28;20218;-71
2022/07/13 08:40:10;;;;;;;0.40;0.40;;;26.70;99.90;;;;;;5021581;28;20680;-71
2022/07/13 08:43:00;;;;;;;0.40;0.40;;;27.10;99.90;;;;;;5025979;28;20198;-71
2022/07/13 08:45:48;;;;;;;0.50;0.50;;;27.30;99.90;;;;;;5028574;28;20202;-71
2022/07/13 08:48:39;;;;;;;0.65;0.65;;;27.40;99.90;;;;;;5025702;28;20225;-71
2022/07/13 08:51:27;;;;;;;0.40;0.40;;;27.40;99.90;;;;;;5023807;28;20226;-71
2022/07/13 08:54:15;;;;;;;0.50;0.50;;;27.30;98.50;;;;;;5022814;28;20646;-71
2022/07/13 08:57:04;;;;;;;0.50;0.50;;;27.20;98.10;;;;;;5020588;28;20202;-71
2022/07/13 08:59:53;;;;;;;0.70;0.70;;;27.40;97.20;;;;;;5022064;28;20233;-70
2022/07/13 09:02:41;;;;;;;0.70;0.70;;;27.60;96.30;;;;;;4995244;28;20206;-70
2022/07/13 09:05:34;;;;;;;0.50;0.50;;;27.50;95.40;;;;;;5026842;28;20718;-70
2022/07/13 09:08:22;;;;;;;0.40;0.40;;;27.10;95.40;;;;;;5009293;28;20202;-70
2022/07/13 09:11:11;;;;;;;0.50;0.50;;;27.10;95.50;;;;;;5025375;28;20210;-71
2022/07/13 09:13:59;;;;;;;0.50;0.50;;;27.10;95.20;;;;;;5015735;28;20707;-71
2022/07/13 09:16:51;;;;;;;0.40;0.40;;;27.30;95.70;;;;;;5015685;28;20221;-70
2022/07/13 09:19:40;;;;;;;0.40;0.40;;;27.30;95.40;;;;;;5014971;28;20578;-70
2022/07/13 09:22:28;;;;;;;0.50;0.50;;;27.50;95.70;;;;;;5015701;28;20273;-71
2022/07/13 09:25:28;;;;;;;0.40;0.40;;;27.50;94.40;;;;;;5015674;28;20226;-70
2022/07/13 09:28:16;;;;;;;0.40;0.40;;;27.40;94.40;;;;;;5022466;28;20272;-70
2022/07/13 09:31:05;;;;;;;0.63;0.47;;;27.40;94.70;;;;;;5034133;28;20580;-69
2022/07/13 09:33:55;;;;;;;0.40;0.40;;;27.60;94.90;;;;;;5033620;28;20332;-71
2022/07/13 09:36:43;;;;;;;0.50;0.50;;;27.90;94.30;;;;;;5034523;28;20289;-70
2022/07/13 09:39:32;;;;;;;0.40;0.40;;;28.10;93.90;;;;;;5033272;28;20208;-70
2022/07/13 09:42:26;;;;;;;0.40;0.40;;;28.20;93.70;;;;;;5037528;28;20245;-69
2022/07/13 09:48:21;;;;;;;0.80;0.80;;;28.80;93.00;;;;;;5013611;28;20206;-70
2022/07/13 09:51:11;;;;;;;0.40;0.40;;;28.90;92.10;;;;;;5012901;28;20218;-69
2022/07/13 09:54:01;;;;;;;0.40;0.40;;;28.90;92.70;;;;;;5030635;28;20222;-69
2022/07/13 09:56:51;;;;;;;0.40;0.40;;;29.00;91.80;;;;;;5023318;28;20571;-69
2022/07/13 09:59:40;;;;;;;0.50;0.50;;;28.80;91.90;;;;;;5021615;28;20680;-70
2022/07/13 10:02:30;;;;;;;0.60;0.60;;;28.90;91.90;;;;;;5019151;28;20191;-70
2022/07/13 10:05:19;;;;;;;0.40;0.40;;;29.00;91.20;;;;;;5030303;28;20222;-70
2022/07/13 10:08:09;;;;;;;0.50;0.50;;;29.20;91.20;;;;;;5026391;28;20206;-70
2022/07/13 10:10:57;;;;;;;0.60;0.60;;;29.20;90.50;;;;;;5022079;28;20229;-70
2022/07/13 10:13:46;;;;;;;0.50;0.50;;;29.00;91.00;;;;;;5018821;28;20643;-69
2022/07/13 10:16:35;;;;;;;0.40;0.40;;;28.90;91.00;;;;;;4993632;28;20255;-70
2022/07/13 10:19:23;;;;;;;0.40;0.40;;;28.90;91.20;;;;;;4993457;28;20199;-70
2022/07/13 10:22:17;;;;;;;0.40;0.40;;;29.20;90.70;;;;;;4992388;28;20203;-70
2022/07/13 10:25:07;;;;;;;0.50;0.50;;;29.40;89.50;;;;;;4992985;28;20234;-70
2022/07/13 10:28:05;;;;;;;0.40;0.40;;;29.50;88.60;;;;;;4993552;28;20215;-70
2022/07/13 10:30:53;;;;;;;1.00;0.90;;;29.60;89.20;;;;;;4992337;28;20219;-70
2022/07/13 10:33:44;;;;;;;0.50;0.50;;;29.80;87.70;;;;;;4993182;28;20238;-70
2022/07/13 10:36:51;;;;;;;0.50;0.50;;;30.10;85.20;;;;;;4992022;28;20675;-70
2022/07/13 10:39:39;;;;;;;0.57;0.57;;;29.90;84.60;;;;;;4992494;28;20582;-70
2022/07/13 10:42:28;;;;;;;0.50;0.50;;;29.70;84.80;;;;;;4992147;28;20699;-70
2022/07/13 10:45:38;;;;;;;0.60;0.60;;;29.90;85.60;;;;;;4992504;28;20266;-70
2022/07/13 10:48:48;;;;;;;0.50;0.50;;;29.80;84.60;;;;;;4992527;28;20230;-70
2022/07/13 10:51:36;;;;;;;0.40;0.40;;;29.70;81.80;;;;;;4992141;28;20219;-70
2022/07/13 10:54:24;;;;;;;1.50;1.40;;;29.90;81.10;;;;;;4992350;28;20223;-70
2022/07/13 10:57:14;;;;;;;0.55;0.45;;;30.30;80.70;;;;;;5001258;28;20245;-70
2022/07/13 11:00:07;;;;;;;0.60;0.60;;;30.60;81.60;;;;;;5012583;28;20222;-70
2022/07/13 11:03:01;;;;;;;0.40;0.40;;;30.70;80.00;;;;;;5021668;28;20195;-70
2022/07/13 11:06:04;;;;;;;0.40;0.40;;;30.90;80.60;;;;;;5016693;28;20195;-70
2022/07/13 11:09:09;;;;;;;0.50;0.50;;;30.90;80.00;;;;;;5018700;28;20690;-70
2022/07/13 11:11:57;;;;;;;0.40;0.40;;;30.60;77.60;;;;;;5012859;28;20210;-70
2022/07/13 11:14:52;;;;;;;0.47;0.47;;;30.50;78.10;;;;;;5019493;28;20277;-70
2022/07/13 11:17:41;;;;;;;0.40;0.40;;;30.60;79.40;;;;;;5019427;28;20672;-70
2022/07/13 11:20:37;;;;;;;0.50;0.50;;;30.50;79.00;;;;;;5019178;28;20210;-70
2022/07/13 11:26:53;;;;;;;0.60;0.60;;;31.00;75.10;;;;;;5019520;28;20573;-70
2022/07/13 11:29:49;;;;;;;0.40;0.40;;;31.30;75.00;;;;;;5018976;28;20194;-70
2022/07/13 11:32:37;;;;;;;0.40;0.40;;;31.20;73.50;;;;;;5014299;28;20365;-69
2022/07/13 11:35:27;;;;;;;0.40;0.40;;;31.30;73.30;;;;;;5010456;28;20260;-69
2022/07/13 11:38:16;;;;;;;0.40;0.40;;;31.60;70.40;;;;;;5011572;28;20582;-69
2022/07/13 11:41:05;;;;;;;0.60;0.40;;;31.60;69.90;;;;;;5011360;28;20210;-69
2022/07/13 11:43:54;;;;;;;0.50;0.50;;;31.70;69.40;;;;;;4993403;28;20219;-69
2022/07/13 11:46:46;;;;;;;0.50;0.50;;;31.60;68.40;;;;;;4994563;28;20204;-69
2022/07/13 11:49:43;;;;;;;0.50;0.50;;;31.20;68.80;;;;;;4992005;28;20207;-69
2022/07/13 11:52:32;;;;;;;0.47;0.47;;;31.20;67.20;;;;;;5012474;28;20221;-69
2022/07/13 11:55:21;;;;;;;0.40;0.40;;;31.40;68.20;;;;;;5022120;28;20721;-70
2022/07/13 11:58:21;;;;;;;0.40;0.40;;;31.80;65.80;;;;;;5018674;28;20210;-69
2022/07/13 12:01:12;;;;;;;0.70;0.70;;;32.30;65.50;;;;;;5021424;28;20214;-69
2022/07/13 12:04:00;;;;;;;0.50;0.50;;;32.60;63.10;;;;;;5019389;28;20313;-69
2022/07/13 12:06:48;;;;;;;0.50;0.50;;;32.60;60.90;;;;;;5016466;28;20286;-69
2022/07/13 12:09:46;;;;;;;0.40;0.40;;;32.60;61.40;;;;;;5021659;28;20205;-69
2022/07/13 12:12:35;;;;;;;0.40;0.40;;;32.50;61.50;;;;;;5019943;28;20234;-69
2022/07/13 12:15:24;;;;;;;0.52;0.52;;;32.20;61.50;;;;;;5017130;28;20277;-70
2022/07/13 12:18:13;;;;;;;0.40;0.40;;;32.10;60.70;;;;;;5020307;28;20571;-70
2022/07/13 12:21:07;;;;;;;1.17;0.63;;;31.70;60.20;;;;;;5023076;28;20281;-69
2022/07/13 12:23:55;;;;;;;0.50;0.50;;;31.50;60.10;;;;;;5023996;28;20572;-69
2022/07/13 12:26:53;;;;;;;0.55;0.55;;;31.10;60.90;;;;;;5016543;28;20203;-69
2022/07/13 12:29:41;;;;;;;0.40;0.40;;;31.00;61.50;;;;;;5013041;28;20199;-69
2022/07/13 12:32:29;;;;;;;0.40;0.40;;;30.70;62.30;;;;;;5014762;28;20227;-69
2022/07/13 12:35:17;;;;;;;0.88;0.88;;;30.50;62.40;;;;;;5015251;28;20741;-69
2022/07/13 12:38:08;;;;;;;0.40;0.40;;;30.30;62.90;;;;;;5014835;28;20296;-69
2022/07/13 12:40:58;;;;;;;0.73;0.60;;;30.30;63.40;;;;;;5014486;28;20568;-69
2022/07/13 12:43:56;;;;;;;0.40;0.40;;;30.40;62.60;;;;;;5014981;28;20223;-69
2022/07/13 12:46:45;;;;;;;0.40;0.40;;;30.80;63.10;;;;;;4994879;28;20668;-70
2022/07/13 12:49:36;;;;;;;0.80;0.80;;;31.30;62.50;;;;;;5003471;28;20198;-69
2022/07/13 12:52:24;;;;;;;0.50;0.50;;;31.70;59.80;;;;;;5033859;28;20285;-70
2022/07/13 12:55:13;;;;;;;0.40;0.40;;;32.10;59.80;;;;;;5034032;28;20225;-70
2022/07/13 12:58:01;;;;;;;0.60;0.60;;;32.30;59.40;;;;;;5016821;28;20217;-70
2022/07/13 13:00:50;;;;;;;0.50;0.50;;;32.00;58.90;;;;;;5014426;28;20198;-70
2022/07/13 13:03:39;;;;;;;0.70;0.70;;;32.10;59.30;;;;;;5014090;28;20281;-70
2022/07/13 13:06:27;;;;;;;0.40;0.40;;;32.40;58.50;;;;;;5014694;28;20211;-69
2022/07/13 13:09:17;;;;;;;0.40;0.40;;;32.40;59.10;;;;;;5013884;28;20195;-70
2022/07/13 13:12:05;;;;;;;0.45;0.45;;;32.90;59.30;;;;;;5013210;28;20725;-70
2022/07/13 13:15:03;;;;;;;0.40;0.40;;;33.40;58.00;;;;;;5021292;28;20211;-70
2022/07/13 13:17:53;;;;;;;0.40;0.40;;;34.00;56.70;;;;;;5016659;28;20207;-70
2022/07/13 13:20:41;;;;;;;0.60;0.60;;;34.50;55.20;;;;;;5015565;28;20252;-71
2022/07/13 13:23:29;;;;;;;0.40;0.40;;;34.20;54.80;;;;;;5014714;28;20191;-71
2022/07/13 13:26:17;;;;;;;0.95;0.68;;;33.70;55.80;;;;;;5013918;28;20590;-71
2022/07/13 13:32:24;;;;;;;0.40;0.40;;;34.10;55.20;;;;;;5012942;28;20222;-70
2022/07/13 13:35:13;;;;;;;0.40;0.40;;;34.40;54.00;;;;;;5012409;28;20230;-70
2022/07/13 13:38:01;;;;;;;0.40;0.40;;;33.90;53.50;;;;;;5012656;28;20214;-70
2022/07/13 13:40:49;;;;;;;0.40;0.40;;;33.40;54.30;;;;;;5013971;28;20203;-69
2022/07/13 13:43:39;;;;;;;0.40;0.40;;;32.90;55.30;;;;;;5017418;28;20268;-70
2022/07/13 13:46:27;;;;;;;0.40;0.40;;;32.60;55.40;;;;;;5014243;28;20203;-69
2022/07/13 13:49:15;;;;;;;0.50;0.50;;;32.40;55.00;;;;;;5013601;28;20576;-70
2022/07/13 13:52:04;;;;;;;0.40;0.40;;;32.30;55.20;;;;;;5013116;28;20278;-70
2022/07/13 13:54:52;;;;;;;0.40;0.40;;;32.30;55.60;;;;;;5013789;28;20223;-70
2022/07/13 13:57:41;;;;;;;0.40;0.40;;;32.60;56.00;;;;;;5012989;28;20206;-72
2022/07/13 14:00:29;;;;;;;0.50;0.50;;;32.70;55.90;;;;;;5013290;28;20261;-70
2022/07/13 14:03:17;;;;;;;0.40;0.40;;;33.50;54.00;;;;;;5013608;28;20199;-70
2022/07/13 14:06:06;;;;;;;0.40;0.40;;;34.40;54.40;;;;;;5013503;28;20680;-70
2022/07/13 14:08:55;;;;;;;0.40;0.40;;;34.40;52.20;;;;;;5012773;28;20273;-70
2022/07/13 14:11:43;;;;;;;0.40;0.40;;;33.70;52.60;;;;;;5013282;28;20262;-70
2022/07/13 14:14:31;;;;;;;0.40;0.40;;;33.20;53.80;;;;;;5013051;28;20582;-70
2022/07/13 14:17:19;;;;;;;0.40;0.40;;;33.10;54.20;;;;;;5013356;28;20198;-70
2022/07/13 14:20:09;;;;;;;0.40;0.40;;;32.90;54.70;;;;;;5012725;28;20216;-70
2022/07/13 14:23:07;;;;;;;0.40;0.40;;;32.50;54.30;;;;;;5012808;28;20200;-71
2022/07/13 14:25:56;;;;;;;0.80;0.80;;;32.20;55.00;;;;;;5011959;28;20578;-70
2022/07/13 14:28:45;;;;;;;0.40;0.40;;;32.00;54.70;;;;;;5012421;28;20203;-71
2022/07/13 14:31:33;;;;;;;0.50;0.50;;;32.10;55.10;;;;;;5012509;28;20222;-71
2022/07/13 14:34:21;;;;;;;0.40;0.40;;;32.30;54.60;;;;;;5012965;28;20230;-71
2022/07/13 14:37:09;;;;;;;0.45;0.45;;;32.50;55.10;;;;;;5012437;28;20210;-72
2022/07/13 14:39:58;;;;;;;0.85;0.60;;;34.60;53.80;;;;;;5011982;28;20206;-73
2022/07/13 14:42:47;;;;;;;0.40;0.40;;;37.90;50.10;;;;;;5012091;28;20549;-71
2022/07/13 14:45:35;;;;;;;0.73;0.73;;;40.80;47.40;;;;;;5013068;28;20233;-71
2022/07/13 14:48:23;;;;;;;0.60;0.60;;;42.30;44.40;;;;;;5011667;28;20206;-70
2022/07/13 14:51:31;;;;;;;1.25;0.85;;;43.50;42.70;;;;;;5012140;28;20627;-71
2022/07/13 14:54:19;;;;;;;0.40;0.40;;;42.20;42.40;;;;;;5012630;28;20226;-70
2022/07/13 14:57:08;;;;;;;0.40;0.40;;;40.40;44.00;;;;;;5011694;28;20195;-70
2022/07/13 14:59:57;;;;;;;0.43;0.43;;;39.30;45.30;;;;;;5012295;28;20207;-71